sensor_id;sensor_type;location;lat;lon;timestamp;pressure;altitude;pressure_sealevel;temperature;humidity
59110;BME280;44895;47.438;18.978;2022-08-16T00:02:09;99126.25;;;22.68;74.71
59110;BME280;44895;47.438;18.978;2022-08-16T00:05:14;99131.00;;;22.64;74.96
59110;BME280;44895;47.438;18.978;2022-08-16T00:08:18;99131.84;;;22.43;76.33
59110;BME280;44895;47.438;18.978;2022-08-16T00:11:22;99137.38;;;22.46;76.12
59110;BME280;44895;47.438;18.978;2022-08-16T00:14:29;99140.53;;;22.41;76.38
59110;BME280;44895;47.438;18.978;2022-08-16T00:17:33;99141.31;;;22.42;76.56
59110;BME280;44895;47.438;18.978;2022-08-16T00:20:39;99136.56;;;22.50;76.02
59110;BME280;44895;47.438;18.978;2022-08-16T00:23:43;99133.41;;;22.47;76.02
59110;BME280;44895;47.438;18.978;2022-08-16T00:26:47;99139.34;;;22.42;75.84
59110;BME280;44895;47.438;18.978;2022-08-16T00:29:50;99138.91;;;22.33;75.64
59110;BME280;44895;47.438;18.978;2022-08-16T00:32:57;99145.25;;;22.30;74.80
59110;BME280;44895;47.438;18.978;2022-08-16T00:36:01;99149.97;;;21.82;77.01
59110;BME280;44895;47.438;18.978;2022-08-16T00:39:04;99138.91;;;21.90;77.20
59110;BME280;44895;47.438;18.978;2022-08-16T00:42:08;99136.56;;;21.85;77.60
59110;BME280;44895;47.438;18.978;2022-08-16T00:45:28;99138.53;;;21.88;76.56
59110;BME280;44895;47.438;18.978;2022-08-16T00:48:34;99136.94;;;21.94;76.28
59110;BME280;44895;47.438;18.978;2022-08-16T00:51:39;99146.00;;;21.73;76.57
59110;BME280;44895;47.438;18.978;2022-08-16T00:54:43;99144.03;;;21.62;77.57
59110;BME280;44895;47.438;18.978;2022-08-16T00:57:48;99144.81;;;21.77;77.06
59110;BME280;44895;47.438;18.978;2022-08-16T01:00:53;99143.25;;;21.73;77.09
59110;BME280;44895;47.438;18.978;2022-08-16T01:03:58;99150.16;;;21.20;79.31
59110;BME280;44895;47.438;18.978;2022-08-16T01:07:04;99154.16;;;21.29;80.00
59110;BME280;44895;47.438;18.978;2022-08-16T01:10:08;99155.81;;;21.56;78.44
59110;BME280;44895;47.438;18.978;2022-08-16T01:13:16;99160.09;;;21.35;79.63
59110;BME280;44895;47.438;18.978;2022-08-16T01:16:24;99159.31;;;21.45;79.29
59110;BME280;44895;47.438;18.978;2022-08-16T01:19:38;99155.66;;;21.12;80.16
59110;BME280;44895;47.438;18.978;2022-08-16T01:22:58;99152.94;;;21.27;80.14
59110;BME280;44895;47.438;18.978;2022-08-16T01:26:05;99167.50;;;21.20;79.96
59110;BME280;44895;47.438;18.978;2022-08-16T01:29:13;99165.94;;;21.15;79.26
59110;BME280;44895;47.438;18.978;2022-08-16T01:32:18;99164.38;;;21.18;79.05
59110;BME280;44895;47.438;18.978;2022-08-16T01:35:31;99149.84;;;20.65;81.54
59110;BME280;44895;47.438;18.978;2022-08-16T01:38:39;99159.41;;;20.75;82.13
59110;BME280;44895;47.438;18.978;2022-08-16T01:41:44;99150.44;;;20.89;81.32
59110;BME280;44895;47.438;18.978;2022-08-16T01:44:48;99148.88;;;20.95;81.17
59110;BME280;44895;47.438;18.978;2022-08-16T01:47:51;99157.94;;;20.96;80.76
59110;BME280;44895;47.438;18.978;2022-08-16T01:50:58;99155.16;;;20.92;81.32
59110;BME280;44895;47.438;18.978;2022-08-16T01:54:03;99161.56;;;20.48;84.24
59110;BME280;44895;47.438;18.978;2022-08-16T01:57:08;99151.81;;;20.61;83.87
59110;BME280;44895;47.438;18.978;2022-08-16T02:00:14;99154.97;;;20.60;84.13
59110;BME280;44895;47.438;18.978;2022-08-16T02:03:18;99150.56;;;20.51;84.79
59110;BME280;44895;47.438;18.978;2022-08-16T02:06:22;99155.22;;;20.44;84.93
59110;BME280;44895;47.438;18.978;2022-08-16T02:09:26;99148.91;;;20.40;86.13
59110;BME280;44895;47.438;18.978;2022-08-16T02:12:30;99160.81;;;20.51;85.25
59110;BME280;44895;47.438;18.978;2022-08-16T02:15:35;99153.53;;;20.28;86.42
59110;BME280;44895;47.438;18.978;2022-08-16T02:18:40;99152.88;;;19.97;88.67
59110;BME280;44895;47.438;18.978;2022-08-16T02:21:49;99153.44;;;20.17;87.99
59110;BME280;44895;47.438;18.978;2022-08-16T02:24:53;99155.94;;;20.33;86.66
59110;BME280;44895;47.438;18.978;2022-08-16T02:27:57;99145.34;;;19.91;89.69
59110;BME280;44895;47.438;18.978;2022-08-16T02:31:06;99149.09;;;20.16;88.92
59110;BME280;44895;47.438;18.978;2022-08-16T02:34:10;99143.69;;;20.27;87.09
59110;BME280;44895;47.438;18.978;2022-08-16T02:37:16;99141.69;;;20.24;87.43
59110;BME280;44895;47.438;18.978;2022-08-16T02:40:22;99140.94;;;20.27;87.98
59110;BME280;44895;47.438;18.978;2022-08-16T02:43:28;99144.88;;;20.30;87.91
59110;BME280;44895;47.438;18.978;2022-08-16T02:46:34;99144.88;;;20.30;88.46
59110;BME280;44895;47.438;18.978;2022-08-16T02:49:40;99142.09;;;20.26;89.02
59110;BME280;44895;47.438;18.978;2022-08-16T02:52:46;99147.19;;;20.20;89.15
59110;BME280;44895;47.438;18.978;2022-08-16T02:55:50;99142.22;;;19.92;90.49
59110;BME280;44895;47.438;18.978;2022-08-16T02:58:54;99137.50;;;19.96;90.68
59110;BME280;44895;47.438;18.978;2022-08-16T03:01:59;99141.91;;;20.01;90.31
59110;BME280;44895;47.438;18.978;2022-08-16T03:05:08;99142.22;;;19.92;90.30
59110;BME280;44895;47.438;18.978;2022-08-16T03:08:14;99142.34;;;19.69;91.31
59110;BME280;44895;47.438;18.978;2022-08-16T03:11:20;99150.28;;;19.74;92.28
59110;BME280;44895;47.438;18.978;2022-08-16T03:14:25;99156.75;;;19.89;91.02
59110;BME280;44895;47.438;18.978;2022-08-16T03:17:33;99152.69;;;19.79;90.77
59110;BME280;44895;47.438;18.978;2022-08-16T03:20:39;99156.66;;;19.82;90.96
59110;BME280;44895;47.438;18.978;2022-08-16T03:23:45;99163.22;;;19.70;91.60
59110;BME280;44895;47.438;18.978;2022-08-16T03:26:49;99165.06;;;19.59;92.90
59110;BME280;44895;47.438;18.978;2022-08-16T03:29:53;99171.06;;;19.68;92.02
59110;BME280;44895;47.438;18.978;2022-08-16T03:32:57;99173.56;;;19.80;91.56
59110;BME280;44895;47.438;18.978;2022-08-16T03:36:04;99173.84;;;19.71;91.98
59110;BME280;44895;47.438;18.978;2022-08-16T03:39:13;99177.72;;;19.67;92.49
59110;BME280;44895;47.438;18.978;2022-08-16T03:42:17;99189.63;;;19.75;92.20
59110;BME280;44895;47.438;18.978;2022-08-16T03:45:21;99189.19;;;19.69;92.80
59110;BME280;44895;47.438;18.978;2022-08-16T03:48:29;99191.16;;;19.72;92.71
59110;BME280;44895;47.438;18.978;2022-08-16T03:51:36;99189.28;;;19.80;92.32
59110;BME280;44895;47.438;18.978;2022-08-16T03:54:43;99191.47;;;19.63;93.74
59110;BME280;44895;47.438;18.978;2022-08-16T03:57:47;99199.28;;;19.58;95.38
59110;BME280;44895;47.438;18.978;2022-08-16T04:00:52;99206.34;;;19.55;95.67
59110;BME280;44895;47.438;18.978;2022-08-16T04:03:58;99210.09;;;19.77;94.27
59110;BME280;44895;47.438;18.978;2022-08-16T04:07:03;99211.03;;;19.85;93.55
59110;BME280;44895;47.438;18.978;2022-08-16T04:10:09;99205.09;;;19.83;93.87
59110;BME280;44895;47.438;18.978;2022-08-16T04:13:14;99201.19;;;19.84;93.70
59110;BME280;44895;47.438;18.978;2022-08-16T04:16:17;99200.06;;;19.92;93.15
59110;BME280;44895;47.438;18.978;2022-08-16T04:19:23;99203.59;;;19.89;94.32
59110;BME280;44895;47.438;18.978;2022-08-16T04:22:29;99207.69;;;20.06;93.63
59110;BME280;44895;47.438;18.978;2022-08-16T04:25:37;99202.28;;;20.17;93.57
59110;BME280;44895;47.438;18.978;2022-08-16T04:28:44;99205.78;;;20.14;94.17
59110;BME280;44895;47.438;18.978;2022-08-16T04:31:50;99208.69;;;20.28;93.83
59110;BME280;44895;47.438;18.978;2022-08-16T04:34:53;99208.00;;;20.42;92.59
59110;BME280;44895;47.438;18.978;2022-08-16T04:37:57;99208.88;;;20.53;92.84
59110;BME280;44895;47.438;18.978;2022-08-16T04:41:05;99206.16;;;20.61;92.02
59110;BME280;44895;47.438;18.978;2022-08-16T04:44:10;99211.44;;;20.77;91.59
59110;BME280;44895;47.438;18.978;2022-08-16T04:47:16;99214.66;;;20.90;90.22
59110;BME280;44895;47.438;18.978;2022-08-16T04:50:23;99210.81;;;21.01;89.90
59110;BME280;44895;47.438;18.978;2022-08-16T04:53:35;99211.66;;;21.13;89.50
59110;BME280;44895;47.438;18.978;2022-08-16T04:56:38;99217.19;;;21.16;90.23
59110;BME280;44895;47.438;18.978;2022-08-16T04:59:42;99212.13;;;21.26;90.79
59110;BME280;44895;47.438;18.978;2022-08-16T05:02:48;99212.59;;;21.49;92.42
59110;BME280;44895;47.438;18.978;2022-08-16T05:05:53;99215.84;;;21.62;91.29
59110;BME280;44895;47.438;18.978;2022-08-16T05:08:58;99225.75;;;21.74;91.80
59110;BME280;44895;47.438;18.978;2022-08-16T05:12:02;99226.13;;;21.80;89.82
59110;BME280;44895;47.438;18.978;2022-08-16T05:15:07;99235.66;;;21.90;89.23
59110;BME280;44895;47.438;18.978;2022-08-16T05:18:14;99236.47;;;22.01;88.68
59110;BME280;44895;47.438;18.978;2022-08-16T05:21:26;99238.84;;;22.10;87.35
59110;BME280;44895;47.438;18.978;2022-08-16T05:24:34;67901.72;;;-146.49;100.00
59110;BME280;44895;47.438;18.978;2022-08-16T05:27:39;67901.72;;;-146.49;100.00
59110;BME280;44895;47.438;18.978;2022-08-16T05:30:44;67901.72;;;-146.49;100.00
59110;BME280;44895;47.438;18.978;2022-08-16T05:33:57;67901.72;;;-146.49;100.00
59110;BME280;44895;47.438;18.978;2022-08-16T05:37:02;67901.72;;;-146.49;100.00
59110;BME280;44895;47.438;18.978;2022-08-16T05:40:12;67901.72;;;-146.49;100.00
59110;BME280;44895;47.438;18.978;2022-08-16T05:43:17;67901.72;;;-146.49;100.00
59110;BME280;44895;47.438;18.978;2022-08-16T05:46:21;67901.72;;;-146.49;100.00
59110;BME280;44895;47.438;18.978;2022-08-16T05:49:27;67901.72;;;-146.49;100.00
59110;BME280;44895;47.438;18.978;2022-08-16T05:52:33;67901.72;;;-146.49;100.00
59110;BME280;44895;47.438;18.978;2022-08-16T05:55:38;67901.72;;;-146.49;100.00
59110;BME280;44895;47.438;18.978;2022-08-16T05:58:43;67901.72;;;-146.49;100.00
59110;BME280;44895;47.438;18.978;2022-08-16T06:01:50;67901.72;;;-146.49;100.00
59110;BME280;44895;47.438;18.978;2022-08-16T06:04:55;67901.72;;;-146.49;100.00
59110;BME280;44895;47.438;18.978;2022-08-16T06:07:59;67901.72;;;-146.49;100.00
59110;BME280;44895;47.438;18.978;2022-08-16T06:11:10;67901.72;;;-146.49;100.00
59110;BME280;44895;47.438;18.978;2022-08-16T06:14:15;67901.72;;;-146.49;100.00
59110;BME280;44895;47.438;18.978;2022-08-16T06:17:20;67901.72;;;-146.49;100.00
59110;BME280;44895;47.438;18.978;2022-08-16T06:20:27;67901.72;;;-146.49;100.00
59110;BME280;44895;47.438;18.978;2022-08-16T06:23:34;67901.72;;;-146.49;100.00
59110;BME280;44895;47.438;18.978;2022-08-16T06:26:41;67901.72;;;-146.49;100.00
59110;BME280;44895;47.438;18.978;2022-08-16T06:29:44;67901.72;;;-146.49;100.00
59110;BME280;44895;47.438;18.978;2022-08-16T06:32:48;67901.72;;;-146.49;100.00
59110;BME280;44895;47.438;18.978;2022-08-16T06:35:54;67901.72;;;-146.49;100.00
59110;BME280;44895;47.438;18.978;2022-08-16T06:38:58;67901.72;;;-146.49;100.00
59110;BME280;44895;47.438;18.978;2022-08-16T06:42:17;67901.72;;;-146.49;100.00
59110;BME280;44895;47.438;18.978;2022-08-16T06:45:32;67901.72;;;-146.49;100.00
59110;BME280;44895;47.438;18.978;2022-08-16T06:48:43;67901.72;;;-146.49;100.00
59110;BME280;44895;47.438;18.978;2022-08-16T06:51:48;67901.72;;;-146.49;100.00
59110;BME280;44895;47.438;18.978;2022-08-16T06:54:54;67901.72;;;-146.49;100.00
59110;BME280;44895;47.438;18.978;2022-08-16T06:57:58;67901.72;;;-146.49;100.00
59110;BME280;44895;47.438;18.978;2022-08-16T07:01:03;67901.72;;;-146.49;100.00
59110;BME280;44895;47.438;18.978;2022-08-16T07:04:09;67901.72;;;-146.49;100.00
59110;BME280;44895;47.438;18.978;2022-08-16T07:07:13;67901.72;;;-146.49;100.00
59110;BME280;44895;47.438;18.978;2022-08-16T07:10:18;67901.72;;;-146.49;100.00
59110;BME280;44895;47.438;18.978;2022-08-16T07:13:22;67901.72;;;-146.49;100.00
59110;BME280;44895;47.438;18.978;2022-08-16T07:16:25;67901.72;;;-146.49;100.00
59110;BME280;44895;47.438;18.978;2022-08-16T07:19:29;67901.72;;;-146.49;100.00
59110;BME280;44895;47.438;18.978;2022-08-16T07:22:35;67901.72;;;-146.49;100.00
59110;BME280;44895;47.438;18.978;2022-08-16T07:25:39;67901.72;;;-146.49;100.00
59110;BME280;44895;47.438;18.978;2022-08-16T07:28:43;67901.72;;;-146.49;100.00
59110;BME280;44895;47.438;18.978;2022-08-16T07:31:47;67901.72;;;-146.49;100.00
59110;BME280;44895;47.438;18.978;2022-08-16T07:34:51;67901.72;;;-146.49;100.00
59110;BME280;44895;47.438;18.978;2022-08-16T07:37:56;67901.72;;;-146.49;100.00
59110;BME280;44895;47.438;18.978;2022-08-16T07:41:08;67901.72;;;-146.49;100.00
59110;BME280;44895;47.438;18.978;2022-08-16T07:44:12;67901.72;;;-146.49;100.00
59110;BME280;44895;47.438;18.978;2022-08-16T07:47:16;67901.72;;;-146.49;100.00
59110;BME280;44895;47.438;18.978;2022-08-16T07:50:20;67901.72;;;-146.49;100.00
59110;BME280;44895;47.438;18.978;2022-08-16T07:53:27;67901.72;;;-146.49;100.00
59110;BME280;44895;47.438;18.978;2022-08-16T07:56:31;67901.72;;;-146.49;100.00
59110;BME280;44895;47.438;18.978;2022-08-16T07:59:35;67901.72;;;-146.49;100.00
59110;BME280;44895;47.438;18.978;2022-08-16T08:02:39;67901.72;;;-146.49;100.00
59110;BME280;44895;47.438;18.978;2022-08-16T08:05:43;67901.72;;;-146.49;100.00
59110;BME280;44895;47.438;18.978;2022-08-16T08:08:48;67901.72;;;-146.49;100.00
59110;BME280;44895;47.438;18.978;2022-08-16T08:11:52;67901.72;;;-146.49;100.00
59110;BME280;44895;47.438;18.978;2022-08-16T08:14:56;67901.72;;;-146.49;100.00
59110;BME280;44895;47.438;18.978;2022-08-16T08:17:59;67901.72;;;-146.49;100.00
59110;BME280;44895;47.438;18.978;2022-08-16T08:21:09;67901.72;;;-146.49;100.00
59110;BME280;44895;47.438;18.978;2022-08-16T08:24:14;67901.72;;;-146.49;100.00
59110;BME280;44895;47.438;18.978;2022-08-16T08:27:18;67901.72;;;-146.49;100.00
59110;BME280;44895;47.438;18.978;2022-08-16T08:30:22;67901.72;;;-146.49;100.00
59110;BME280;44895;47.438;18.978;2022-08-16T08:33:29;67901.72;;;-146.49;100.00
59110;BME280;44895;47.438;18.978;2022-08-16T08:36:34;67901.72;;;-146.49;100.00
59110;BME280;44895;47.438;18.978;2022-08-16T08:40:07;67901.72;;;-146.49;100.00
59110;BME280;44895;47.438;18.978;2022-08-16T08:43:13;67901.72;;;-146.49;100.00
59110;BME280;44895;47.438;18.978;2022-08-16T08:46:23;67901.72;;;-146.49;100.00
59110;BME280;44895;47.438;18.978;2022-08-16T08:49:30;67901.72;;;-146.49;100.00
59110;BME280;44895;47.438;18.978;2022-08-16T08:52:34;67901.72;;;-146.49;100.00
59110;BME280;44895;47.438;18.978;2022-08-16T08:55:37;67901.72;;;-146.49;100.00
59110;BME280;44895;47.438;18.978;2022-08-16T08:58:41;67901.72;;;-146.49;100.00
59110;BME280;44895;47.438;18.978;2022-08-16T09:01:55;67901.72;;;-146.49;100.00
59110;BME280;44895;47.438;18.978;2022-08-16T09:04:59;67901.72;;;-146.49;100.00
59110;BME280;44895;47.438;18.978;2022-08-16T09:08:03;67901.72;;;-146.49;100.00
59110;BME280;44895;47.438;18.978;2022-08-16T09:11:19;67901.72;;;-146.49;100.00
59110;BME280;44895;47.438;18.978;2022-08-16T09:14:24;67901.72;;;-146.49;100.00
59110;BME280;44895;47.438;18.978;2022-08-16T09:17:29;67901.72;;;-146.49;100.00
59110;BME280;44895;47.438;18.978;2022-08-16T09:20:33;67901.72;;;-146.49;100.00
59110;BME280;44895;47.438;18.978;2022-08-16T09:23:38;67901.72;;;-146.49;100.00
59110;BME280;44895;47.438;18.978;2022-08-16T09:26:44;67901.72;;;-146.49;100.00
59110;BME280;44895;47.438;18.978;2022-08-16T09:29:48;67901.72;;;-146.49;100.00
59110;BME280;44895;47.438;18.978;2022-08-16T09:32:54;67901.72;;;-146.49;100.00
59110;BME280;44895;47.438;18.978;2022-08-16T09:35:57;67901.72;;;-146.49;100.00
59110;BME280;44895;47.438;18.978;2022-08-16T09:39:02;67901.72;;;-146.49;100.00
59110;BME280;44895;47.438;18.978;2022-08-16T09:42:06;67901.72;;;-146.49;100.00
59110;BME280;44895;47.438;18.978;2022-08-16T09:45:10;67901.72;;;-146.49;100.00
59110;BME280;44895;47.438;18.978;2022-08-16T09:48:14;67901.72;;;-146.49;100.00
59110;BME280;44895;47.438;18.978;2022-08-16T09:51:19;67901.72;;;-146.49;100.00
59110;BME280;44895;47.438;18.978;2022-08-16T09:54:26;67901.72;;;-146.49;100.00
59110;BME280;44895;47.438;18.978;2022-08-16T09:57:31;67901.72;;;-146.49;100.00
59110;BME280;44895;47.438;18.978;2022-08-16T10:00:35;67901.72;;;-146.49;100.00
59110;BME280;44895;47.438;18.978;2022-08-16T10:03:38;67901.72;;;-146.49;100.00
59110;BME280;44895;47.438;18.978;2022-08-16T10:06:42;67901.72;;;-146.49;100.00
59110;BME280;44895;47.438;18.978;2022-08-16T10:09:48;67901.72;;;-146.49;100.00
59110;BME280;44895;47.438;18.978;2022-08-16T10:12:52;67901.72;;;-146.49;100.00
59110;BME280;44895;47.438;18.978;2022-08-16T10:16:14;67901.72;;;-146.49;100.00
59110;BME280;44895;47.438;18.978;2022-08-16T10:19:18;67901.72;;;-146.49;100.00
59110;BME280;44895;47.438;18.978;2022-08-16T10:22:22;67901.72;;;-146.49;100.00
59110;BME280;44895;47.438;18.978;2022-08-16T10:25:25;67901.72;;;-146.49;100.00
59110;BME280;44895;47.438;18.978;2022-08-16T10:28:30;67901.72;;;-146.49;100.00
59110;BME280;44895;47.438;18.978;2022-08-16T10:31:34;67901.72;;;-146.49;100.00
59110;BME280;44895;47.438;18.978;2022-08-16T10:34:38;67901.72;;;-146.49;100.00
59110;BME280;44895;47.438;18.978;2022-08-16T10:37:41;67901.72;;;-146.49;100.00
59110;BME280;44895;47.438;18.978;2022-08-16T10:40:45;67901.72;;;-146.49;100.00
59110;BME280;44895;47.438;18.978;2022-08-16T10:43:49;67901.72;;;-146.49;100.00
59110;BME280;44895;47.438;18.978;2022-08-16T10:46:54;67901.72;;;-146.49;100.00
59110;BME280;44895;47.438;18.978;2022-08-16T10:49:57;67901.72;;;-146.49;100.00
59110;BME280;44895;47.438;18.978;2022-08-16T10:53:01;67901.72;;;-146.49;100.00
59110;BME280;44895;47.438;18.978;2022-08-16T10:56:10;67901.72;;;-146.49;100.00
59110;BME280;44895;47.438;18.978;2022-08-16T10:59:15;67901.72;;;-146.49;100.00
59110;BME280;44895;47.438;18.978;2022-08-16T11:02:20;67901.72;;;-146.49;100.00
59110;BME280;44895;47.438;18.978;2022-08-16T11:05:25;67901.72;;;-146.49;100.00
59110;BME280;44895;47.438;18.978;2022-08-16T11:08:28;67901.72;;;-146.49;100.00
59110;BME280;44895;47.438;18.978;2022-08-16T11:11:32;67901.72;;;-146.49;100.00
59110;BME280;44895;47.438;18.978;2022-08-16T11:14:36;67901.72;;;-146.49;100.00
59110;BME280;44895;47.438;18.978;2022-08-16T11:17:40;67901.72;;;-146.49;100.00
59110;BME280;44895;47.438;18.978;2022-08-16T11:20:44;67901.72;;;-146.49;100.00
59110;BME280;44895;47.438;18.978;2022-08-16T11:23:51;67901.72;;;-146.49;100.00
59110;BME280;44895;47.438;18.978;2022-08-16T11:26:55;67901.72;;;-146.49;100.00
59110;BME280;44895;47.438;18.978;2022-08-16T11:29:59;67901.72;;;-146.49;100.00
59110;BME280;44895;47.438;18.978;2022-08-16T11:33:03;67901.72;;;-146.49;100.00
59110;BME280;44895;47.438;18.978;2022-08-16T11:36:07;67901.72;;;-146.49;100.00
59110;BME280;44895;47.438;18.978;2022-08-16T11:39:10;67901.72;;;-146.49;100.00
59110;BME280;44895;47.438;18.978;2022-08-16T11:42:14;67901.72;;;-146.49;100.00
59110;BME280;44895;47.438;18.978;2022-08-16T11:45:18;67901.72;;;-146.49;100.00
59110;BME280;44895;47.438;18.978;2022-08-16T11:48:27;67901.72;;;-146.49;100.00
59110;BME280;44895;47.438;18.978;2022-08-16T11:51:31;67901.72;;;-146.49;100.00
59110;BME280;44895;47.438;18.978;2022-08-16T11:54:38;67901.72;;;-146.49;100.00
59110;BME280;44895;47.438;18.978;2022-08-16T11:57:42;67901.72;;;-146.49;100.00
59110;BME280;44895;47.438;18.978;2022-08-16T12:00:47;67901.72;;;-146.49;100.00
59110;BME280;44895;47.438;18.978;2022-08-16T12:03:50;67901.72;;;-146.49;100.00
59110;BME280;44895;47.438;18.978;2022-08-16T12:06:54;67901.72;;;-146.49;100.00
59110;BME280;44895;47.438;18.978;2022-08-16T12:09:58;67901.72;;;-146.49;100.00
59110;BME280;44895;47.438;18.978;2022-08-16T12:13:02;67901.72;;;-146.49;100.00
59110;BME280;44895;47.438;18.978;2022-08-16T12:16:07;67901.72;;;-146.49;100.00
59110;BME280;44895;47.438;18.978;2022-08-16T12:19:11;67901.72;;;-146.49;100.00
59110;BME280;44895;47.438;18.978;2022-08-16T12:22:14;67901.72;;;-146.49;100.00
59110;BME280;44895;47.438;18.978;2022-08-16T12:25:21;67901.72;;;-146.49;100.00
59110;BME280;44895;47.438;18.978;2022-08-16T12:28:25;67901.72;;;-146.49;100.00
59110;BME280;44895;47.438;18.978;2022-08-16T12:31:29;67901.72;;;-146.49;100.00
59110;BME280;44895;47.438;18.978;2022-08-16T12:34:33;67901.72;;;-146.49;100.00
59110;BME280;44895;47.438;18.978;2022-08-16T12:37:39;67901.72;;;-146.49;100.00
59110;BME280;44895;47.438;18.978;2022-08-16T12:40:46;67901.72;;;-146.49;100.00
59110;BME280;44895;47.438;18.978;2022-08-16T12:43:52;67901.72;;;-146.49;100.00
59110;BME280;44895;47.438;18.978;2022-08-16T12:46:56;67901.72;;;-146.49;100.00
59110;BME280;44895;47.438;18.978;2022-08-16T12:50:18;67901.72;;;-146.49;100.00
59110;BME280;44895;47.438;18.978;2022-08-16T12:53:23;67901.72;;;-146.49;100.00
59110;BME280;44895;47.438;18.978;2022-08-16T12:56:32;67901.72;;;-146.49;100.00
59110;BME280;44895;47.438;18.978;2022-08-16T12:59:36;67901.72;;;-146.49;100.00
59110;BME280;44895;47.438;18.978;2022-08-16T13:02:39;67901.72;;;-146.49;100.00
59110;BME280;44895;47.438;18.978;2022-08-16T13:05:43;67901.72;;;-146.49;100.00
59110;BME280;44895;47.438;18.978;2022-08-16T13:08:48;67901.72;;;-146.49;100.00
59110;BME280;44895;47.438;18.978;2022-08-16T13:11:56;67901.72;;;-146.49;100.00
59110;BME280;44895;47.438;18.978;2022-08-16T13:15:05;67901.72;;;-146.49;100.00
59110;BME280;44895;47.438;18.978;2022-08-16T13:18:13;67901.72;;;-146.49;100.00
59110;BME280;44895;47.438;18.978;2022-08-16T13:21:17;67901.72;;;-146.49;100.00
59110;BME280;44895;47.438;18.978;2022-08-16T13:24:20;67901.72;;;-146.49;100.00
59110;BME280;44895;47.438;18.978;2022-08-16T13:27:24;67901.72;;;-146.49;100.00
59110;BME280;44895;47.438;18.978;2022-08-16T13:30:31;67901.72;;;-146.49;100.00
59110;BME280;44895;47.438;18.978;2022-08-16T13:33:35;67901.72;;;-146.49;100.00
59110;BME280;44895;47.438;18.978;2022-08-16T13:36:39;67901.72;;;-146.49;100.00
59110;BME280;44895;47.438;18.978;2022-08-16T13:39:43;67901.72;;;-146.49;100.00
59110;BME280;44895;47.438;18.978;2022-08-16T13:42:47;67901.72;;;-146.49;100.00
59110;BME280;44895;47.438;18.978;2022-08-16T13:45:52;67901.72;;;-146.49;100.00
59110;BME280;44895;47.438;18.978;2022-08-16T13:48:57;67901.72;;;-146.49;100.00
59110;BME280;44895;47.438;18.978;2022-08-16T13:52:02;67901.72;;;-146.49;100.00
59110;BME280;44895;47.438;18.978;2022-08-16T13:55:08;67901.72;;;-146.49;100.00
59110;BME280;44895;47.438;18.978;2022-08-16T13:58:12;67901.72;;;-146.49;100.00
59110;BME280;44895;47.438;18.978;2022-08-16T14:01:17;67901.72;;;-146.49;100.00
59110;BME280;44895;47.438;18.978;2022-08-16T14:04:20;67901.72;;;-146.49;100.00
59110;BME280;44895;47.438;18.978;2022-08-16T14:07:24;67901.72;;;-146.49;100.00
59110;BME280;44895;47.438;18.978;2022-08-16T14:10:28;67901.72;;;-146.49;100.00
59110;BME280;44895;47.438;18.978;2022-08-16T14:13:32;67901.72;;;-146.49;100.00
59110;BME280;44895;47.438;18.978;2022-08-16T14:16:36;67901.72;;;-146.49;100.00
59110;BME280;44895;47.438;18.978;2022-08-16T14:19:40;67901.72;;;-146.49;100.00
59110;BME280;44895;47.438;18.978;2022-08-16T14:22:44;67901.72;;;-146.49;100.00
59110;BME280;44895;47.438;18.978;2022-08-16T14:25:52;67901.72;;;-146.49;100.00
59110;BME280;44895;47.438;18.978;2022-08-16T14:28:55;67901.72;;;-146.49;100.00
59110;BME280;44895;47.438;18.978;2022-08-16T14:32:03;67901.72;;;-146.49;100.00
59110;BME280;44895;47.438;18.978;2022-08-16T14:35:10;67901.72;;;-146.49;100.00
59110;BME280;44895;47.438;18.978;2022-08-16T14:38:15;67901.72;;;-146.49;100.00
59110;BME280;44895;47.438;18.978;2022-08-16T14:41:20;67901.72;;;-146.49;100.00
59110;BME280;44895;47.438;18.978;2022-08-16T14:44:24;67901.72;;;-146.49;100.00
59110;BME280;44895;47.438;18.978;2022-08-16T14:47:27;67901.72;;;-146.49;100.00
59110;BME280;44895;47.438;18.978;2022-08-16T14:50:32;67901.72;;;-146.49;100.00
59110;BME280;44895;47.438;18.978;2022-08-16T14:53:37;67901.72;;;-146.49;100.00
59110;BME280;44895;47.438;18.978;2022-08-16T14:56:40;67901.72;;;-146.49;100.00
59110;BME280;44895;47.438;18.978;2022-08-16T14:59:44;67901.72;;;-146.49;100.00
59110;BME280;44895;47.438;18.978;2022-08-16T15:02:53;67901.72;;;-146.49;100.00
59110;BME280;44895;47.438;18.978;2022-08-16T15:05:56;67901.72;;;-146.49;100.00
59110;BME280;44895;47.438;18.978;2022-08-16T15:09:00;67901.72;;;-146.49;100.00
59110;BME280;44895;47.438;18.978;2022-08-16T15:12:10;67901.72;;;-146.49;100.00
59110;BME280;44895;47.438;18.978;2022-08-16T15:15:17;67901.72;;;-146.49;100.00
59110;BME280;44895;47.438;18.978;2022-08-16T15:18:22;67901.72;;;-146.49;100.00
59110;BME280;44895;47.438;18.978;2022-08-16T15:21:28;67901.72;;;-146.49;100.00
59110;BME280;44895;47.438;18.978;2022-08-16T15:24:31;67901.72;;;-146.49;100.00
59110;BME280;44895;47.438;18.978;2022-08-16T15:27:37;67901.72;;;-146.49;100.00
59110;BME280;44895;47.438;18.978;2022-08-16T15:30:44;67901.72;;;-146.49;100.00
59110;BME280;44895;47.438;18.978;2022-08-16T15:33:48;67901.72;;;-146.49;100.00
59110;BME280;44895;47.438;18.978;2022-08-16T15:36:51;67901.72;;;-146.49;100.00
59110;BME280;44895;47.438;18.978;2022-08-16T15:39:55;67901.72;;;-146.49;100.00
59110;BME280;44895;47.438;18.978;2022-08-16T15:42:59;67901.72;;;-146.49;100.00
59110;BME280;44895;47.438;18.978;2022-08-16T15:46:04;67901.72;;;-146.49;100.00